sensor_id;sensor_type;location;lat;lon;timestamp;temperature;humidity
5041;DHT22;2539;52.568;13.364;2023-05-10T00:03:12;12.70;99.90
5041;DHT22;2539;52.568;13.364;2023-05-10T00:05:38;12.70;99.90
5041;DHT22;2539;52.568;13.364;2023-05-10T00:08:04;12.60;99.90
5041;DHT22;2539;52.568;13.364;2023-05-10T00:10:30;12.60;99.90
5041;DHT22;2539;52.568;13.364;2023-05-10T00:12:56;12.60;99.90
5041;DHT22;2539;52.568;13.364;2023-05-10T00:15:22;12.60;99.90
5041;DHT22;2539;52.568;13.364;2023-05-10T00:17:50;12.50;99.90
5041;DHT22;2539;52.568;13.364;2023-05-10T00:20:16;12.50;99.90
5041;DHT22;2539;52.568;13.364;2023-05-10T00:22:48;12.50;99.90
5041;DHT22;2539;52.568;13.364;2023-05-10T00:25:14;12.40;99.90
5041;DHT22;2539;52.568;13.364;2023-05-10T00:27:41;12.40;99.90
5041;DHT22;2539;52.568;13.364;2023-05-10T00:30:07;12.30;99.90
5041;DHT22;2539;52.568;13.364;2023-05-10T00:32:34;12.40;99.90
5041;DHT22;2539;52.568;13.364;2023-05-10T00:35:00;12.30;99.90
5041;DHT22;2539;52.568;13.364;2023-05-10T00:37:27;12.30;99.90
5041;DHT22;2539;52.568;13.364;2023-05-10T00:39:53;12.30;99.90
5041;DHT22;2539;52.568;13.364;2023-05-10T00:42:19;12.20;99.90
5041;DHT22;2539;52.568;13.364;2023-05-10T00:44:46;12.20;99.90
5041;DHT22;2539;52.568;13.364;2023-05-10T00:47:12;12.20;99.90
5041;DHT22;2539;52.568;13.364;2023-05-10T00:49:39;12.20;99.90
5041;DHT22;2539;52.568;13.364;2023-05-10T00:52:06;12.10;99.90
5041;DHT22;2539;52.568;13.364;2023-05-10T00:54:32;12.10;99.90
5041;DHT22;2539;52.568;13.364;2023-05-10T00:56:59;12.10;99.90
5041;DHT22;2539;52.568;13.364;2023-05-10T00:59:25;12.00;99.90
5041;DHT22;2539;52.568;13.364;2023-05-10T01:01:52;12.00;99.90
5041;DHT22;2539;52.568;13.364;2023-05-10T01:04:19;12.00;99.90
5041;DHT22;2539;52.568;13.364;2023-05-10T01:06:47;11.90;99.90
5041;DHT22;2539;52.568;13.364;2023-05-10T01:09:14;11.90;99.90
5041;DHT22;2539;52.568;13.364;2023-05-10T01:11:40;11.90;99.90
5041;DHT22;2539;52.568;13.364;2023-05-10T01:14:07;12.00;99.90
5041;DHT22;2539;52.568;13.364;2023-05-10T01:16:37;11.80;99.90
5041;DHT22;2539;52.568;13.364;2023-05-10T01:19:06;11.80;99.90
5041;DHT22;2539;52.568;13.364;2023-05-10T01:21:43;11.80;99.90
5041;DHT22;2539;52.568;13.364;2023-05-10T01:24:39;11.70;99.90
5041;DHT22;2539;52.568;13.364;2023-05-10T01:30:28;11.70;99.90
5041;DHT22;2539;52.568;13.364;2023-05-10T01:36:05;11.60;99.90
5041;DHT22;2539;52.568;13.364;2023-05-10T01:38:43;11.60;99.90
5041;DHT22;2539;52.568;13.364;2023-05-10T01:41:20;11.60;99.90
5041;DHT22;2539;52.568;13.364;2023-05-10T01:44:16;11.40;99.90
5041;DHT22;2539;52.568;13.364;2023-05-10T01:46:48;11.50;99.90
5041;DHT22;2539;52.568;13.364;2023-05-10T01:49:25;11.50;99.90
5041;DHT22;2539;52.568;13.364;2023-05-10T01:51:54;11.50;99.90
5041;DHT22;2539;52.568;13.364;2023-05-10T01:54:23;11.50;99.90
5041;DHT22;2539;52.568;13.364;2023-05-10T01:57:05;11.40;99.90
5041;DHT22;2539;52.568;13.364;2023-05-10T01:59:34;11.40;99.90
5041;DHT22;2539;52.568;13.364;2023-05-10T02:02:07;11.40;99.90
5041;DHT22;2539;52.568;13.364;2023-05-10T02:04:39;11.40;99.90
5041;DHT22;2539;52.568;13.364;2023-05-10T02:07:06;11.30;99.90
5041;DHT22;2539;52.568;13.364;2023-05-10T02:09:34;11.30;99.90
5041;DHT22;2539;52.568;13.364;2023-05-10T02:12:02;11.30;99.90
5041;DHT22;2539;52.568;13.364;2023-05-10T02:14:32;11.30;99.90
5041;DHT22;2539;52.568;13.364;2023-05-10T02:19:28;11.30;99.90
5041;DHT22;2539;52.568;13.364;2023-05-10T02:21:56;11.20;99.90
5041;DHT22;2539;52.568;13.364;2023-05-10T02:24:24;11.20;99.90
5041;DHT22;2539;52.568;13.364;2023-05-10T02:26:51;11.20;99.90
5041;DHT22;2539;52.568;13.364;2023-05-10T02:29:20;11.10;99.90
5041;DHT22;2539;52.568;13.364;2023-05-10T02:31:47;11.10;99.90
5041;DHT22;2539;52.568;13.364;2023-05-10T02:36:41;11.10;99.90
5041;DHT22;2539;52.568;13.364;2023-05-10T02:39:09;11.10;99.90
5041;DHT22;2539;52.568;13.364;2023-05-10T02:41:40;11.10;99.90
5041;DHT22;2539;52.568;13.364;2023-05-10T02:44:07;11.00;99.90
5041;DHT22;2539;52.568;13.364;2023-05-10T02:46:35;11.00;99.90
5041;DHT22;2539;52.568;13.364;2023-05-10T02:49:03;10.90;99.90
5041;DHT22;2539;52.568;13.364;2023-05-10T02:51:31;10.90;99.90
5041;DHT22;2539;52.568;13.364;2023-05-10T02:54:06;10.90;99.90
5041;DHT22;2539;52.568;13.364;2023-05-10T02:56:39;10.90;99.90
5041;DHT22;2539;52.568;13.364;2023-05-10T02:59:06;10.80;99.90
5041;DHT22;2539;52.568;13.364;2023-05-10T03:03:59;10.80;99.90
5041;DHT22;2539;52.568;13.364;2023-05-10T03:06:26;10.80;99.90
5041;DHT22;2539;52.568;13.364;2023-05-10T03:11:47;10.80;99.90
5041;DHT22;2539;52.568;13.364;2023-05-10T03:14:37;10.70;99.90
5041;DHT22;2539;52.568;13.364;2023-05-10T03:17:11;10.70;99.90
5041;DHT22;2539;52.568;13.364;2023-05-10T03:19:53;10.70;99.90
5041;DHT22;2539;52.568;13.364;2023-05-10T03:22:37;10.70;99.90
5041;DHT22;2539;52.568;13.364;2023-05-10T03:25:08;10.70;99.90
5041;DHT22;2539;52.568;13.364;2023-05-10T03:27:39;10.70;99.90
5041;DHT22;2539;52.568;13.364;2023-05-10T03:30:11;10.70;99.90
5041;DHT22;2539;52.568;13.364;2023-05-10T03:35:09;10.70;99.90
5041;DHT22;2539;52.568;13.364;2023-05-10T03:37:35;10.70;99.90
5041;DHT22;2539;52.568;13.364;2023-05-10T03:40:03;10.70;99.90
5041;DHT22;2539;52.568;13.364;2023-05-10T03:42:29;10.80;99.90
5041;DHT22;2539;52.568;13.364;2023-05-10T03:44:55;10.80;99.90
5041;DHT22;2539;52.568;13.364;2023-05-10T03:52:14;10.80;99.90
5041;DHT22;2539;52.568;13.364;2023-05-10T03:54:40;10.80;99.90
5041;DHT22;2539;52.568;13.364;2023-05-10T04:01:59;10.90;99.90
5041;DHT22;2539;52.568;13.364;2023-05-10T04:06:51;11.10;99.90
5041;DHT22;2539;52.568;13.364;2023-05-10T04:14:11;11.70;99.90
5041;DHT22;2539;52.568;13.364;2023-05-10T04:16:37;12.10;99.90
5041;DHT22;2539;52.568;13.364;2023-05-10T04:19:04;12.50;99.90
5041;DHT22;2539;52.568;13.364;2023-05-10T04:28:53;11.60;99.90
5041;DHT22;2539;52.568;13.364;2023-05-10T04:31:19;11.50;99.90
5041;DHT22;2539;52.568;13.364;2023-05-10T04:36:12;11.50;99.90
5041;DHT22;2539;52.568;13.364;2023-05-10T04:38:39;11.40;99.90
5041;DHT22;2539;52.568;13.364;2023-05-10T04:41:09;11.40;99.90
5041;DHT22;2539;52.568;13.364;2023-05-10T04:43:37;11.50;99.90
5041;DHT22;2539;52.568;13.364;2023-05-10T04:46:04;11.50;99.90
5041;DHT22;2539;52.568;13.364;2023-05-10T04:48:30;11.50;99.90
5041;DHT22;2539;52.568;13.364;2023-05-10T04:50:57;11.50;99.90
5041;DHT22;2539;52.568;13.364;2023-05-10T04:55:50;11.70;99.90
5041;DHT22;2539;52.568;13.364;2023-05-10T04:58:16;11.70;99.90
5041;DHT22;2539;52.568;13.364;2023-05-10T05:00:42;11.70;99.90
5041;DHT22;2539;52.568;13.364;2023-05-10T05:05:36;11.80;99.90
5041;DHT22;2539;52.568;13.364;2023-05-10T05:08:03;11.80;99.90
5041;DHT22;2539;52.568;13.364;2023-05-10T05:10:29;11.90;99.90
5041;DHT22;2539;52.568;13.364;2023-05-10T05:15:22;12.00;99.90
5041;DHT22;2539;52.568;13.364;2023-05-10T05:17:48;12.10;99.90
5041;DHT22;2539;52.568;13.364;2023-05-10T05:20:15;12.20;99.90
5041;DHT22;2539;52.568;13.364;2023-05-10T05:22:41;12.30;99.90
5041;DHT22;2539;52.568;13.364;2023-05-10T05:25:08;12.30;99.90
5041;DHT22;2539;52.568;13.364;2023-05-10T05:27:34;12.50;99.90
5041;DHT22;2539;52.568;13.364;2023-05-10T05:30:00;12.50;99.90
5041;DHT22;2539;52.568;13.364;2023-05-10T05:32:26;12.60;99.90
5041;DHT22;2539;52.568;13.364;2023-05-10T05:34:53;12.60;99.90
5041;DHT22;2539;52.568;13.364;2023-05-10T05:37:20;12.70;99.90
5041;DHT22;2539;52.568;13.364;2023-05-10T05:39:47;12.80;99.90
5041;DHT22;2539;52.568;13.364;2023-05-10T05:42:14;12.80;99.90
5041;DHT22;2539;52.568;13.364;2023-05-10T05:44:41;12.80;99.90
5041;DHT22;2539;52.568;13.364;2023-05-10T05:47:08;12.80;99.90
5041;DHT22;2539;52.568;13.364;2023-05-10T05:49:34;13.00;99.90
5041;DHT22;2539;52.568;13.364;2023-05-10T05:52:02;13.10;99.90
5041;DHT22;2539;52.568;13.364;2023-05-10T05:54:29;13.20;99.90
5041;DHT22;2539;52.568;13.364;2023-05-10T05:56:57;13.20;99.90
5041;DHT22;2539;52.568;13.364;2023-05-10T05:59:24;13.30;99.90
5041;DHT22;2539;52.568;13.364;2023-05-10T06:01:50;13.30;99.90
5041;DHT22;2539;52.568;13.364;2023-05-10T06:04:17;13.40;99.90
5041;DHT22;2539;52.568;13.364;2023-05-10T06:06:43;13.50;99.90
5041;DHT22;2539;52.568;13.364;2023-05-10T06:09:09;13.60;99.90
5041;DHT22;2539;52.568;13.364;2023-05-10T06:14:04;13.70;99.90
5041;DHT22;2539;52.568;13.364;2023-05-10T06:16:31;13.80;99.90
5041;DHT22;2539;52.568;13.364;2023-05-10T06:18:57;13.90;99.90
5041;DHT22;2539;52.568;13.364;2023-05-10T06:21:23;13.90;99.90
5041;DHT22;2539;52.568;13.364;2023-05-10T06:23:49;14.00;99.90
5041;DHT22;2539;52.568;13.364;2023-05-10T06:26:16;14.00;99.90
5041;DHT22;2539;52.568;13.364;2023-05-10T06:28:42;14.20;99.90
5041;DHT22;2539;52.568;13.364;2023-05-10T06:31:08;14.20;99.90
5041;DHT22;2539;52.568;13.364;2023-05-10T06:33:34;14.20;99.90
5041;DHT22;2539;52.568;13.364;2023-05-10T06:36:01;14.40;99.90
5041;DHT22;2539;52.568;13.364;2023-05-10T06:38:27;14.50;99.90
5041;DHT22;2539;52.568;13.364;2023-05-10T06:40:52;14.50;99.90
5041;DHT22;2539;52.568;13.364;2023-05-10T06:43:18;14.50;99.90
5041;DHT22;2539;52.568;13.364;2023-05-10T06:45:44;14.60;99.90
5041;DHT22;2539;52.568;13.364;2023-05-10T06:48:10;14.60;99.90
5041;DHT22;2539;52.568;13.364;2023-05-10T06:50:37;14.60;99.90
5041;DHT22;2539;52.568;13.364;2023-05-10T06:53:03;14.80;99.90
5041;DHT22;2539;52.568;13.364;2023-05-10T06:55:29;14.80;99.90
5041;DHT22;2539;52.568;13.364;2023-05-10T06:57:56;14.90;99.90
5041;DHT22;2539;52.568;13.364;2023-05-10T07:00:22;14.90;99.90
5041;DHT22;2539;52.568;13.364;2023-05-10T07:02:48;14.80;99.90
5041;DHT22;2539;52.568;13.364;2023-05-10T07:05:15;15.00;99.90
5041;DHT22;2539;52.568;13.364;2023-05-10T07:07:41;15.20;99.90
5041;DHT22;2539;52.568;13.364;2023-05-10T07:10:08;15.20;99.90
5041;DHT22;2539;52.568;13.364;2023-05-10T07:12:35;15.30;99.90
5041;DHT22;2539;52.568;13.364;2023-05-10T07:15:02;15.30;99.90
5041;DHT22;2539;52.568;13.364;2023-05-10T07:17:29;15.30;99.90
5041;DHT22;2539;52.568;13.364;2023-05-10T07:19:55;15.30;99.90
5041;DHT22;2539;52.568;13.364;2023-05-10T07:22:21;15.40;99.90
5041;DHT22;2539;52.568;13.364;2023-05-10T07:24:48;15.50;99.90
5041;DHT22;2539;52.568;13.364;2023-05-10T07:27:14;15.50;99.90
5041;DHT22;2539;52.568;13.364;2023-05-10T07:29:40;15.60;99.90
5041;DHT22;2539;52.568;13.364;2023-05-10T07:32:07;15.70;99.90
5041;DHT22;2539;52.568;13.364;2023-05-10T07:34:33;15.70;99.90
5041;DHT22;2539;52.568;13.364;2023-05-10T07:36:59;15.70;99.90
5041;DHT22;2539;52.568;13.364;2023-05-10T07:39:26;15.80;99.90
5041;DHT22;2539;52.568;13.364;2023-05-10T07:41:53;15.90;99.90
5041;DHT22;2539;52.568;13.364;2023-05-10T07:44:19;16.00;99.90
5041;DHT22;2539;52.568;13.364;2023-05-10T07:46:47;16.10;99.90
5041;DHT22;2539;52.568;13.364;2023-05-10T07:49:13;16.10;99.90
5041;DHT22;2539;52.568;13.364;2023-05-10T07:51:40;16.20;99.90
5041;DHT22;2539;52.568;13.364;2023-05-10T07:54:06;16.20;99.90
5041;DHT22;2539;52.568;13.364;2023-05-10T07:56:33;17.90;99.90
5041;DHT22;2539;52.568;13.364;2023-05-10T07:59:02;16.30;99.90
5041;DHT22;2539;52.568;13.364;2023-05-10T08:01:31;16.30;99.90
5041;DHT22;2539;52.568;13.364;2023-05-10T08:03:58;16.40;99.90
5041;DHT22;2539;52.568;13.364;2023-05-10T08:06:24;16.40;99.90
5041;DHT22;2539;52.568;13.364;2023-05-10T08:08:53;16.60;99.90
5041;DHT22;2539;52.568;13.364;2023-05-10T08:11:20;16.70;99.90
5041;DHT22;2539;52.568;13.364;2023-05-10T08:13:48;16.80;99.90
5041;DHT22;2539;52.568;13.364;2023-05-10T08:16:15;16.90;99.90
5041;DHT22;2539;52.568;13.364;2023-05-10T08:18:43;16.90;99.90
5041;DHT22;2539;52.568;13.364;2023-05-10T08:21:10;17.00;99.90
5041;DHT22;2539;52.568;13.364;2023-05-10T08:23:37;17.00;99.90
5041;DHT22;2539;52.568;13.364;2023-05-10T08:26:03;17.00;99.90
5041;DHT22;2539;52.568;13.364;2023-05-10T08:28:28;17.10;99.90
5041;DHT22;2539;52.568;13.364;2023-05-10T08:30:54;17.20;99.90
5041;DHT22;2539;52.568;13.364;2023-05-10T08:33:20;17.20;99.90
5041;DHT22;2539;52.568;13.364;2023-05-10T08:35:46;17.30;99.90
5041;DHT22;2539;52.568;13.364;2023-05-10T08:38:12;17.30;99.90
5041;DHT22;2539;52.568;13.364;2023-05-10T08:40:42;17.40;99.90
5041;DHT22;2539;52.568;13.364;2023-05-10T08:43:10;17.40;99.90
5041;DHT22;2539;52.568;13.364;2023-05-10T08:45:39;17.50;99.90
5041;DHT22;2539;52.568;13.364;2023-05-10T08:48:07;17.50;99.90
5041;DHT22;2539;52.568;13.364;2023-05-10T08:50:36;17.60;99.90
5041;DHT22;2539;52.568;13.364;2023-05-10T08:53:04;17.60;99.90
5041;DHT22;2539;52.568;13.364;2023-05-10T08:55:31;17.50;99.90
5041;DHT22;2539;52.568;13.364;2023-05-10T08:57:59;17.60;99.90
5041;DHT22;2539;52.568;13.364;2023-05-10T09:00:26;17.60;99.90
5041;DHT22;2539;52.568;13.364;2023-05-10T09:02:54;17.70;99.90
5041;DHT22;2539;52.568;13.364;2023-05-10T09:05:20;17.80;99.90
5041;DHT22;2539;52.568;13.364;2023-05-10T09:07:46;17.90;99.60
5041;DHT22;2539;52.568;13.364;2023-05-10T09:10:13;18.00;99.80
5041;DHT22;2539;52.568;13.364;2023-05-10T09:12:40;18.10;99.50
5041;DHT22;2539;52.568;13.364;2023-05-10T09:15:09;18.00;99.60
5041;DHT22;2539;52.568;13.364;2023-05-10T09:17:36;18.10;99.60
5041;DHT22;2539;52.568;13.364;2023-05-10T09:20:04;18.20;99.10
5041;DHT22;2539;52.568;13.364;2023-05-10T09:22:31;18.20;99.20
5041;DHT22;2539;52.568;13.364;2023-05-10T09:27:38;18.30;98.80
5041;DHT22;2539;52.568;13.364;2023-05-10T09:30:07;18.30;98.30
5041;DHT22;2539;52.568;13.364;2023-05-10T09:32:40;18.30;98.30
5041;DHT22;2539;52.568;13.364;2023-05-10T09:35:10;18.40;98.30
5041;DHT22;2539;52.568;13.364;2023-05-10T09:37:39;18.20;98.20
5041;DHT22;2539;52.568;13.364;2023-05-10T09:40:15;18.40;98.80
5041;DHT22;2539;52.568;13.364;2023-05-10T09:42:50;18.50;98.60
5041;DHT22;2539;52.568;13.364;2023-05-10T09:45:17;18.70;98.50
5041;DHT22;2539;52.568;13.364;2023-05-10T09:47:43;18.70;97.80
5041;DHT22;2539;52.568;13.364;2023-05-10T09:50:10;18.80;97.70
5041;DHT22;2539;52.568;13.364;2023-05-10T09:55:14;18.90;97.50
5041;DHT22;2539;52.568;13.364;2023-05-10T09:57:40;18.90;97.20
5041;DHT22;2539;52.568;13.364;2023-05-10T10:00:07;19.00;97.50
5041;DHT22;2539;52.568;13.364;2023-05-10T10:02:34;19.00;96.90
5041;DHT22;2539;52.568;13.364;2023-05-10T10:05:01;19.10;96.50
5041;DHT22;2539;52.568;13.364;2023-05-10T10:07:29;19.10;96.20
5041;DHT22;2539;52.568;13.364;2023-05-10T10:09:55;19.10;96.30
5041;DHT22;2539;52.568;13.364;2023-05-10T10:12:22;19.10;96.60
5041;DHT22;2539;52.568;13.364;2023-05-10T10:14:48;19.20;96.30
5041;DHT22;2539;52.568;13.364;2023-05-10T10:17:17;19.30;95.70
5041;DHT22;2539;52.568;13.364;2023-05-10T10:19:43;19.30;95.70
5041;DHT22;2539;52.568;13.364;2023-05-10T10:22:11;19.40;95.90
5041;DHT22;2539;52.568;13.364;2023-05-10T10:24:39;19.50;95.70
5041;DHT22;2539;52.568;13.364;2023-05-10T10:27:28;19.60;95.50
5041;DHT22;2539;52.568;13.364;2023-05-10T10:30:25;19.60;95.20
5041;DHT22;2539;52.568;13.364;2023-05-10T10:35:29;19.80;95.20
5041;DHT22;2539;52.568;13.364;2023-05-10T10:37:56;19.80;94.90
5041;DHT22;2539;52.568;13.364;2023-05-10T10:40:30;19.80;94.70
5041;DHT22;2539;52.568;13.364;2023-05-10T10:42:57;19.90;94.40
5041;DHT22;2539;52.568;13.364;2023-05-10T10:45:24;19.90;94.40
5041;DHT22;2539;52.568;13.364;2023-05-10T10:48:21;20.00;94.50
5041;DHT22;2539;52.568;13.364;2023-05-10T10:50:47;20.10;93.80
5041;DHT22;2539;52.568;13.364;2023-05-10T10:53:21;20.00;93.80
5041;DHT22;2539;52.568;13.364;2023-05-10T10:55:48;20.10;93.10
5041;DHT22;2539;52.568;13.364;2023-05-10T10:58:29;20.00;93.30
5041;DHT22;2539;52.568;13.364;2023-05-10T11:01:18;20.00;92.70
5041;DHT22;2539;52.568;13.364;2023-05-10T11:06:29;20.20;92.50
5041;DHT22;2539;52.568;13.364;2023-05-10T11:08:57;20.20;92.20
5041;DHT22;2539;52.568;13.364;2023-05-10T11:11:24;20.40;91.80
5041;DHT22;2539;52.568;13.364;2023-05-10T11:13:51;20.30;92.80
5041;DHT22;2539;52.568;13.364;2023-05-10T11:16:21;20.50;92.20
5041;DHT22;2539;52.568;13.364;2023-05-10T11:19:01;20.50;91.90
5041;DHT22;2539;52.568;13.364;2023-05-10T11:21:29;20.40;91.60
5041;DHT22;2539;52.568;13.364;2023-05-10T11:23:57;20.40;91.80
5041;DHT22;2539;52.568;13.364;2023-05-10T11:26:26;20.50;92.60
5041;DHT22;2539;52.568;13.364;2023-05-10T11:28:56;20.70;92.50
5041;DHT22;2539;52.568;13.364;2023-05-10T11:31:23;20.80;91.80
5041;DHT22;2539;52.568;13.364;2023-05-10T11:33:51;20.90;91.70
5041;DHT22;2539;52.568;13.364;2023-05-10T11:36:24;21.00;91.10
5041;DHT22;2539;52.568;13.364;2023-05-10T11:38:52;21.00;90.70
5041;DHT22;2539;52.568;13.364;2023-05-10T11:41:19;21.00;89.90
5041;DHT22;2539;52.568;13.364;2023-05-10T11:43:54;20.90;90.10
5041;DHT22;2539;52.568;13.364;2023-05-10T11:46:26;20.80;90.80
5041;DHT22;2539;52.568;13.364;2023-05-10T11:48:58;20.90;90.50
5041;DHT22;2539;52.568;13.364;2023-05-10T11:51:26;21.00;91.40
5041;DHT22;2539;52.568;13.364;2023-05-10T11:53:54;21.20;90.30
5041;DHT22;2539;52.568;13.364;2023-05-10T11:56:21;21.30;88.60
5041;DHT22;2539;52.568;13.364;2023-05-10T11:58:56;21.30;87.80
5041;DHT22;2539;52.568;13.364;2023-05-10T12:01:24;21.30;89.00
5041;DHT22;2539;52.568;13.364;2023-05-10T12:03:52;21.50;88.70
5041;DHT22;2539;52.568;13.364;2023-05-10T12:06:20;21.50;87.20
5041;DHT22;2539;52.568;13.364;2023-05-10T12:08:48;21.50;87.60
5041;DHT22;2539;52.568;13.364;2023-05-10T12:11:18;21.50;86.70
5041;DHT22;2539;52.568;13.364;2023-05-10T12:13:45;21.50;86.20
5041;DHT22;2539;52.568;13.364;2023-05-10T12:18:40;21.60;85.60
5041;DHT22;2539;52.568;13.364;2023-05-10T12:21:10;21.60;84.70
5041;DHT22;2539;52.568;13.364;2023-05-10T12:23:40;21.60;85.10
5041;DHT22;2539;52.568;13.364;2023-05-10T12:26:10;21.60;85.10
5041;DHT22;2539;52.568;13.364;2023-05-10T12:28:37;21.60;85.20
5041;DHT22;2539;52.568;13.364;2023-05-10T12:31:06;21.70;84.40
5041;DHT22;2539;52.568;13.364;2023-05-10T12:33:43;21.70;83.30
5041;DHT22;2539;52.568;13.364;2023-05-10T12:36:11;21.90;82.50
5041;DHT22;2539;52.568;13.364;2023-05-10T12:38:42;22.00;80.90
5041;DHT22;2539;52.568;13.364;2023-05-10T12:41:10;22.00;79.90
5041;DHT22;2539;52.568;13.364;2023-05-10T12:43:37;21.90;80.80
5041;DHT22;2539;52.568;13.364;2023-05-10T12:46:12;21.70;80.30
5041;DHT22;2539;52.568;13.364;2023-05-10T12:48:40;21.70;80.70
5041;DHT22;2539;52.568;13.364;2023-05-10T12:51:07;21.80;80.80
5041;DHT22;2539;52.568;13.364;2023-05-10T12:53:43;21.90;79.70
5041;DHT22;2539;52.568;13.364;2023-05-10T12:56:11;22.00;77.90
5041;DHT22;2539;52.568;13.364;2023-05-10T12:58:38;22.00;78.00
5041;DHT22;2539;52.568;13.364;2023-05-10T13:01:05;22.10;79.00
5041;DHT22;2539;52.568;13.364;2023-05-10T13:03:31;22.20;79.70
5041;DHT22;2539;52.568;13.364;2023-05-10T13:05:57;22.30;78.50
5041;DHT22;2539;52.568;13.364;2023-05-10T13:08:24;22.40;78.10
5041;DHT22;2539;52.568;13.364;2023-05-10T13:10:51;22.40;79.20
5041;DHT22;2539;52.568;13.364;2023-05-10T13:13:17;22.50;77.70
5041;DHT22;2539;52.568;13.364;2023-05-10T13:18:10;22.30;75.40
5041;DHT22;2539;52.568;13.364;2023-05-10T13:20:36;22.30;76.80
5041;DHT22;2539;52.568;13.364;2023-05-10T13:23:02;22.30;75.00
5041;DHT22;2539;52.568;13.364;2023-05-10T13:25:28;22.30;75.90
5041;DHT22;2539;52.568;13.364;2023-05-10T13:27:53;22.30;76.00
5041;DHT22;2539;52.568;13.364;2023-05-10T13:30:20;22.30;76.60
5041;DHT22;2539;52.568;13.364;2023-05-10T13:32:46;22.40;77.00
5041;DHT22;2539;52.568;13.364;2023-05-10T13:35:12;22.50;77.10
5041;DHT22;2539;52.568;13.364;2023-05-10T13:37:39;22.70;76.80
5041;DHT22;2539;52.568;13.364;2023-05-10T13:40:06;22.80;74.20
5041;DHT22;2539;52.568;13.364;2023-05-10T13:42:32;22.50;73.40
5041;DHT22;2539;52.568;13.364;2023-05-10T13:45:00;22.30;73.30
5041;DHT22;2539;52.568;13.364;2023-05-10T13:47:27;22.40;74.20
5041;DHT22;2539;52.568;13.364;2023-05-10T13:49:54;22.30;74.50
5041;DHT22;2539;52.568;13.364;2023-05-10T13:52:20;22.10;75.00
5041;DHT22;2539;52.568;13.364;2023-05-10T13:54:46;21.90;75.10
5041;DHT22;2539;52.568;13.364;2023-05-10T13:57:13;21.70;76.30
5041;DHT22;2539;52.568;13.364;2023-05-10T13:59:40;21.90;76.80
5041;DHT22;2539;52.568;13.364;2023-05-10T14:02:07;22.10;77.50
5041;DHT22;2539;52.568;13.364;2023-05-10T14:04:33;22.50;76.60
5041;DHT22;2539;52.568;13.364;2023-05-10T14:07:01;22.70;74.50
5041;DHT22;2539;52.568;13.364;2023-05-10T14:09:27;22.90;74.00
5041;DHT22;2539;52.568;13.364;2023-05-10T14:11:54;23.20;74.10
5041;DHT22;2539;52.568;13.364;2023-05-10T14:14:20;23.20;74.80
5041;DHT22;2539;52.568;13.364;2023-05-10T14:16:45;23.20;72.50
5041;DHT22;2539;52.568;13.364;2023-05-10T14:19:11;23.00;72.20
5041;DHT22;2539;52.568;13.364;2023-05-10T14:21:38;23.10;71.90
5041;DHT22;2539;52.568;13.364;2023-05-10T14:24:04;23.10;70.20
5041;DHT22;2539;52.568;13.364;2023-05-10T14:26:30;23.10;69.00
5041;DHT22;2539;52.568;13.364;2023-05-10T14:28:57;23.10;68.10
5041;DHT22;2539;52.568;13.364;2023-05-10T14:31:23;23.20;68.90
5041;DHT22;2539;52.568;13.364;2023-05-10T14:33:51;23.10;69.40
5041;DHT22;2539;52.568;13.364;2023-05-10T14:36:18;22.10;68.60
5041;DHT22;2539;52.568;13.364;2023-05-10T14:38:44;23.30;69.40
5041;DHT22;2539;52.568;13.364;2023-05-10T14:41:10;23.60;69.50
5041;DHT22;2539;52.568;13.364;2023-05-10T14:43:40;24.30;66.90
5041;DHT22;2539;52.568;13.364;2023-05-10T14:46:07;25.00;64.80
5041;DHT22;2539;52.568;13.364;2023-05-10T14:48:33;25.50;62.80
5041;DHT22;2539;52.568;13.364;2023-05-10T14:50:59;26.10;60.50
5041;DHT22;2539;52.568;13.364;2023-05-10T14:53:26;26.70;57.70
5041;DHT22;2539;52.568;13.364;2023-05-10T14:55:52;27.10;56.50
5041;DHT22;2539;52.568;13.364;2023-05-10T14:58:18;27.20;55.00
5041;DHT22;2539;52.568;13.364;2023-05-10T15:00:44;27.10;55.30
5041;DHT22;2539;52.568;13.364;2023-05-10T15:03:12;27.20;55.10
5041;DHT22;2539;52.568;13.364;2023-05-10T15:05:38;27.30;54.80
5041;DHT22;2539;52.568;13.364;2023-05-10T15:08:04;27.40;54.20
5041;DHT22;2539;52.568;13.364;2023-05-10T15:10:32;27.30;54.10
5041;DHT22;2539;52.568;13.364;2023-05-10T15:13:03;27.30;54.00
5041;DHT22;2539;52.568;13.364;2023-05-10T15:15:29;27.10;54.10
5041;DHT22;2539;52.568;13.364;2023-05-10T15:17:56;26.80;54.40
5041;DHT22;2539;52.568;13.364;2023-05-10T15:20:22;26.30;54.00
5041;DHT22;2539;52.568;13.364;2023-05-10T15:22:48;25.50;54.80
5041;DHT22;2539;52.568;13.364;2023-05-10T15:25:15;25.10;55.50
5041;DHT22;2539;52.568;13.364;2023-05-10T15:27:42;25.40;56.20
5041;DHT22;2539;52.568;13.364;2023-05-10T15:30:10;27.90;57.20
5041;DHT22;2539;52.568;13.364;2023-05-10T15:32:36;25.60;55.60
5041;DHT22;2539;52.568;13.364;2023-05-10T15:35:03;25.30;55.70
5041;DHT22;2539;52.568;13.364;2023-05-10T15:37:29;25.20;56.60
5041;DHT22;2539;52.568;13.364;2023-05-10T15:39:56;24.90;56.90
5041;DHT22;2539;52.568;13.364;2023-05-10T15:42:32;24.20;57.90
5041;DHT22;2539;52.568;13.364;2023-05-10T15:44:59;23.70;59.30
5041;DHT22;2539;52.568;13.364;2023-05-10T15:47:25;23.30;60.40
5041;DHT22;2539;52.568;13.364;2023-05-10T15:49:51;22.90;61.00
5041;DHT22;2539;52.568;13.364;2023-05-10T15:52:18;22.50;61.30
5041;DHT22;2539;52.568;13.364;2023-05-10T15:54:44;22.30;62.30
5041;DHT22;2539;52.568;13.364;2023-05-10T15:57:10;22.20;62.50
5041;DHT22;2539;52.568;13.364;2023-05-10T15:59:36;22.20;63.20
5041;DHT22;2539;52.568;13.364;2023-05-10T16:02:02;22.20;63.60
5041;DHT22;2539;52.568;13.364;2023-05-10T16:04:29;22.20;64.40
5041;DHT22;2539;52.568;13.364;2023-05-10T16:06:54;22.20;64.40
5041;DHT22;2539;52.568;13.364;2023-05-10T16:09:20;22.10;65.40
5041;DHT22;2539;52.568;13.364;2023-05-10T16:11:47;22.10;65.30
5041;DHT22;2539;52.568;13.364;2023-05-10T16:14:12;21.90;65.70
5041;DHT22;2539;52.568;13.364;2023-05-10T16:16:38;21.80;66.50
5041;DHT22;2539;52.568;13.364;2023-05-10T16:19:04;21.70;66.70
5041;DHT22;2539;52.568;13.364;2023-05-10T16:21:30;21.70;67.80
5041;DHT22;2539;52.568;13.364;2023-05-10T16:23:58;21.70;67.80
5041;DHT22;2539;52.568;13.364;2023-05-10T16:26:25;21.70;68.60
5041;DHT22;2539;52.568;13.364;2023-05-10T16:28:51;21.80;68.60
5041;DHT22;2539;52.568;13.364;2023-05-10T16:31:18;21.80;68.50
5041;DHT22;2539;52.568;13.364;2023-05-10T16:33:45;21.80;69.30
5041;DHT22;2539;52.568;13.364;2023-05-10T16:36:11;21.80;68.30
5041;DHT22;2539;52.568;13.364;2023-05-10T16:38:37;21.80;68.40
5041;DHT22;2539;52.568;13.364;2023-05-10T16:41:04;21.90;69.50
5041;DHT22;2539;52.568;13.364;2023-05-10T16:43:31;21.90;69.90
5041;DHT22;2539;52.568;13.364;2023-05-10T16:45:58;22.00;72.30
5041;DHT22;2539;52.568;13.364;2023-05-10T16:48:24;21.90;85.90
5041;DHT22;2539;52.568;13.364;2023-05-10T16:50:50;22.10;91.50
5041;DHT22;2539;52.568;13.364;2023-05-10T16:53:17;22.00;98.00
5041;DHT22;2539;52.568;13.364;2023-05-10T16:55:43;21.60;99.90
5041;DHT22;2539;52.568;13.364;2023-05-10T16:58:10;21.30;99.90
5041;DHT22;2539;52.568;13.364;2023-05-10T17:00:36;21.00;99.90
5041;DHT22;2539;52.568;13.364;2023-05-10T17:03:03;20.90;99.90